Brevik, Minnesota
Current Conditions -  °F | °C
As of 9:36 AM on Saturday 20 Dec 2014 (Local Time) from KXVG Reporting Station
Haze Haze  
Wind Chill: 23°   Ceiling: 400
Heat Index: 30°   Visibility: 1.7mi
Dew Point: 28°   Wind: 8mph
Humidity: 93%   Direction: 180°S
Pressure: 30.04"   Gusts: NA
Location:  47.0632°N, 94.1534°W
Report Text: KXVG 201536Z AUTO 18007KT 1 3/4SM BR OVC004 M01/M02 A3004 RMK AO2
Loading
Personal Weather Stations






























Interactive Weather Map New forecast layout! Learn more

10-Day Weather Forecast

Advertisements
Track Severe Weather on mobile